Time;durP1;ratioP1;P1;durP2;ratioP2;P2;SDS_P1;SDS_P2;PMS_P1;PMS_P2;Temp;Humidity;BMP_temperature;BMP_pressure;BME280_temperature;BME280_humidity;BME280_pressure;Samples;Min_cycle;Max_cycle;Signal;HPM_P1;HPM_P2
2021/10/29 00:00:37;;;;;;;13.88;11.75;;;12.40;99.90;;;12.57;83.43;100696.56;5052848;28;20124;-69
2021/10/29 00:03:06;;;;;;;15.98;12.50;;;12.40;99.90;;;12.51;83.25;100699.28;5052821;28;20272;-69
2021/10/29 00:05:37;;;;;;;16.58;12.25;;;12.40;99.90;;;12.55;83.40;100693.03;5053057;28;20071;-69
2021/10/29 00:08:06;;;;;;;15.75;11.93;;;12.40;99.90;;;12.44;83.96;100696.75;5052712;28;20450;-69
2021/10/29 00:10:36;;;;;;;15.98;11.15;;;12.30;99.90;;;12.30;84.37;100696.06;5052691;28;20768;-69
2021/10/29 00:13:04;;;;;;;17.05;11.27;;;12.20;99.90;;;12.27;84.59;100686.38;5051658;28;20057;-69
2021/10/29 00:15:33;;;;;;;15.45;12.02;;;12.10;99.90;;;12.36;84.66;100693.34;5052714;28;20064;-69
2021/10/29 00:18:02;;;;;;;16.52;11.80;;;12.20;99.90;;;12.38;84.26;100691.53;5052464;28;20045;-69
2021/10/29 00:20:31;;;;;;;15.82;12.20;;;12.20;99.90;;;12.34;84.39;100692.47;5051591;28;20166;-69
2021/10/29 00:23:00;;;;;;;13.63;11.38;;;12.20;99.90;;;12.21;84.28;100683.84;5052450;28;20194;-69
2021/10/29 00:25:29;;;;;;;19.43;11.67;;;12.20;99.90;;;12.41;84.17;100684.41;5052671;28;20437;-69
2021/10/29 00:27:57;;;;;;;15.07;11.15;;;12.30;99.90;;;12.48;83.54;100679.91;5051426;28;20299;-69
2021/10/29 00:30:26;;;;;;;16.15;11.05;;;12.30;99.90;;;12.50;83.33;100688.72;5052690;28;20052;-69
2021/10/29 00:32:56;;;;;;;15.73;11.70;;;12.40;99.90;;;12.44;83.31;100678.19;5052541;28;20136;-69
2021/10/29 00:35:25;;;;;;;16.02;12.02;;;12.40;99.90;;;12.46;83.75;100679.03;5051404;28;20047;-69
2021/10/29 00:37:54;;;;;;;16.40;11.57;;;12.30;99.90;;;12.47;83.37;100686.09;5052671;28;20114;-69
2021/10/29 00:40:23;;;;;;;14.85;10.93;;;12.30;99.90;;;12.53;82.99;100681.56;5053006;28;20142;-69
2021/10/29 00:42:52;;;;;;;16.30;10.60;;;12.40;99.90;;;12.46;83.02;100676.38;5052673;28;20049;-69
2021/10/29 00:45:20;;;;;;;13.00;11.02;;;12.40;99.90;;;11.91;82.93;100606.47;5051397;28;20386;-69
2021/10/29 00:47:51;;;;;;;14.95;11.35;;;12.30;99.90;;;12.51;83.00;100686.03;5052245;28;20049;-69
2021/10/29 00:50:20;;;;;;;15.90;10.52;;;12.40;99.90;;;12.40;83.06;100672.06;5052339;28;20075;-69
2021/10/29 00:52:48;;;;;;;21.80;10.77;;;12.40;99.90;;;12.40;82.82;100666.75;5052335;28;20041;-69
2021/10/29 00:55:17;;;;;;;15.82;11.10;;;12.40;99.90;;;12.49;82.50;100656.00;5052548;28;20099;-69
2021/10/29 00:57:46;;;;;;;15.52;11.10;;;12.50;99.90;;;12.44;82.65;100683.50;5052529;28;20055;-69
2021/10/29 01:00:16;;;;;;;16.37;12.13;;;12.30;99.90;;;12.58;82.91;100673.56;5052310;28;20049;-69
2021/10/29 01:02:44;;;;;;;16.98;12.90;;;12.40;99.90;;;12.45;82.74;100664.00;5052749;28;20128;-69
2021/10/29 01:05:13;;;;;;;18.08;12.07;;;12.30;99.90;;;12.39;83.12;100672.94;5052715;28;20099;-69
2021/10/29 01:07:41;;;;;;;14.65;11.65;;;12.40;99.90;;;12.41;83.09;100668.50;5052179;28;20041;-69
2021/10/29 01:10:11;;;;;;;15.48;11.02;;;12.30;99.90;;;12.40;83.13;100676.47;5052055;28;20107;-69
2021/10/29 01:12:39;;;;;;;17.67;11.98;;;12.30;99.90;;;12.47;83.08;100675.47;5052626;28;20065;-69
2021/10/29 01:15:11;;;;;;;12.80;11.23;;;12.30;99.90;;;11.75;83.16;100550.16;5051069;28;20544;-69
2021/10/29 01:17:39;;;;;;;18.40;12.27;;;12.30;99.90;;;12.39;83.11;100669.41;5052674;28;20049;-69
2021/10/29 01:20:09;;;;;;;15.43;11.00;;;12.30;99.90;;;12.41;83.03;100659.66;5051013;28;20080;-69
2021/10/29 01:22:39;;;;;;;14.05;11.02;;;12.30;99.90;;;12.47;82.95;100663.09;5052147;28;20052;-69
2021/10/29 01:25:10;;;;;;;16.58;11.80;;;12.30;99.90;;;12.31;82.75;100621.78;5052418;28;20553;-69
2021/10/29 01:27:40;;;;;;;15.38;11.70;;;12.30;99.90;;;12.47;82.87;100648.94;5052453;28;20045;-69
2021/10/29 01:30:10;;;;;;;12.95;11.07;;;12.30;99.90;;;12.57;82.18;100643.47;5052245;28;20069;-69
2021/10/29 01:32:40;;;;;;;14.05;11.77;;;12.40;99.90;;;12.44;82.58;100646.34;5056212;28;20056;-69
2021/10/29 01:35:12;;;;;;;15.63;11.48;;;12.40;99.90;;;12.41;82.59;100633.13;5055866;28;20450;-69
2021/10/29 01:37:42;;;;;;;15.32;10.60;;;12.30;99.90;;;12.37;82.73;100634.94;5055613;28;20053;-69
2021/10/29 01:40:13;;;;;;;;;;;12.30;99.90;;;12.31;83.02;100636.84;5055955;28;20069;-68
2021/10/29 01:42:42;;;;;;;15.52;11.52;;;12.20;99.90;;;12.33;83.14;100629.75;5055755;28;19964;-69
2021/10/29 01:45:11;;;;;;;18.30;11.57;;;12.20;99.90;;;12.33;83.27;100640.34;5055360;28;20081;-68
2021/10/29 01:47:39;;;;;;;16.33;11.40;;;12.20;99.90;;;12.36;82.85;100622.59;5055288;28;20102;-69
2021/10/29 01:50:09;;;;;;;19.30;11.85;;;12.30;99.90;;;12.31;83.11;100650.94;5055156;28;20055;-69
2021/10/29 01:52:38;;;;;;;15.82;12.15;;;12.20;99.90;;;12.14;83.28;100601.72;5055337;28;20045;-68
2021/10/29 01:55:09;;;;;;;16.90;11.63;;;12.10;99.90;;;12.33;83.36;100616.47;5055707;28;20132;-69
2021/10/29 01:57:38;;;;;;;18.35;11.68;;;12.20;99.90;;;12.31;83.28;100613.81;5055201;28;20430;-69
2021/10/29 02:00:08;;;;;;;13.73;11.52;;;12.20;99.90;;;12.20;83.56;100609.59;5055134;28;20486;-69
2021/10/29 02:02:41;;;;;;;14.88;11.90;;;12.10;99.90;;;12.16;83.62;100603.47;5055281;28;20383;-69
2021/10/29 02:05:11;;;;;;;14.13;11.27;;;12.10;99.90;;;12.26;83.58;100606.84;5055314;28;20120;-69
2021/10/29 02:07:40;;;;;;;14.10;10.90;;;12.10;99.90;;;12.31;83.45;100613.81;5054976;28;20037;-69
2021/10/29 02:10:10;;;;;;;12.65;10.70;;;12.20;99.90;;;12.33;83.00;100589.97;5054806;28;20091;-69
2021/10/29 02:12:39;;;;;;;14.25;11.13;;;12.20;99.90;;;12.19;83.55;100597.25;5055450;28;20044;-69
2021/10/29 02:15:10;;;;;;;14.48;10.73;;;12.10;99.90;;;12.03;83.16;100553.31;5054780;28;20127;-69
2021/10/29 02:17:38;;;;;;;15.50;10.63;;;12.20;99.90;;;12.25;83.41;100587.41;5054988;28;20041;-69
2021/10/29 02:20:08;;;;;;;15.45;11.98;;;12.10;99.90;;;12.34;83.26;100583.75;5055267;28;20052;-69
2021/10/29 02:22:37;;;;;;;16.03;11.40;;;12.20;99.90;;;12.34;83.22;100581.97;5054865;28;20092;-69
2021/10/29 02:25:07;;;;;;;13.75;10.52;;;12.20;99.90;;;12.28;82.77;100581.19;5054979;28;20499;-69
2021/10/29 02:27:36;;;;;;;15.00;11.32;;;12.20;99.90;;;12.25;83.34;100571.50;5054600;28;20453;-70
2021/10/29 02:30:07;;;;;;;13.97;10.90;;;12.10;99.90;;;12.15;83.68;100574.31;5054461;28;20044;-69
2021/10/29 02:32:35;;;;;;;12.10;10.40;;;12.10;99.90;;;12.15;83.75;100585.81;5054872;28;20040;-69
2021/10/29 02:35:04;;;;;;;17.38;11.10;;;12.00;99.90;;;12.14;84.04;100567.25;5054929;28;20057;-68
2021/10/29 02:37:33;;;;;;;15.77;10.95;;;12.00;99.90;;;12.15;83.84;100571.69;5070031;28;20548;-69
2021/10/29 02:40:01;;;;;;;15.05;11.50;;;12.00;99.90;;;12.13;83.96;100581.44;5054339;28;20554;-69
2021/10/29 02:42:29;;;;;;;12.40;10.57;;;12.00;99.90;;;12.10;83.93;100590.28;5054293;28;20384;-69
2021/10/29 02:45:00;;;;;;;14.30;11.38;;;12.00;99.90;;;12.15;83.89;100569.03;5054225;28;20087;-69
2021/10/29 02:47:28;;;;;;;16.13;11.30;;;12.10;99.90;;;12.07;83.94;100569.16;5054819;28;20041;-69
2021/10/29 02:49:56;;;;;;;13.85;11.45;;;12.00;99.90;;;12.15;84.16;100569.03;5054358;28;20121;-69
2021/10/29 02:52:25;;;;;;;13.60;11.15;;;12.00;99.90;;;12.14;84.10;100572.56;5054087;28;20049;-69
2021/10/29 02:54:54;;;;;;;16.05;11.15;;;12.00;99.90;;;12.11;83.88;100568.19;5054581;28;20119;-68
2021/10/29 02:57:22;;;;;;;13.55;10.93;;;12.00;99.90;;;12.04;84.25;100569.16;5054020;28;20045;-69
2021/10/29 02:59:50;;;;;;;17.60;11.77;;;11.90;99.90;;;12.04;84.36;100568.31;5054188;28;20079;-68
2021/10/29 03:02:20;;;;;;;17.25;11.65;;;11.90;99.90;;;11.94;84.27;100559.63;5053893;28;20049;-69
2021/10/29 03:04:49;;;;;;;13.73;11.32;;;11.90;99.90;;;12.08;84.02;100570.03;5053916;28;20132;-69
2021/10/29 03:07:17;;;;;;;15.07;10.95;;;11.90;99.90;;;11.97;84.23;100564.88;5053837;28;20083;-69
2021/10/29 03:09:45;;;;;;;16.33;11.82;;;11.90;99.90;;;11.97;84.46;100569.28;5053649;28;20098;-69
2021/10/29 03:12:14;;;;;;;14.27;11.10;;;11.90;99.90;;;11.95;84.60;100552.53;5053987;28;20099;-69
2021/10/29 03:14:42;;;;;;;16.25;11.15;;;11.80;99.90;;;11.95;84.41;100549.88;5053630;28;20049;-69
2021/10/29 03:17:11;;;;;;;14.77;11.07;;;11.90;99.90;;;11.98;84.77;100560.47;5053584;28;20528;-69
2021/10/29 03:19:40;;;;;;;16.63;11.48;;;11.80;99.90;;;11.99;84.24;100563.09;5053579;28;20041;-69
2021/10/29 03:22:09;;;;;;;14.90;11.93;;;11.90;99.90;;;11.99;84.47;100557.78;5053464;28;20107;-69
2021/10/29 03:24:38;;;;;;;16.15;11.57;;;11.90;99.90;;;12.12;84.46;100554.03;5053789;28;20060;-69
2021/10/29 03:27:09;;;;;;;12.98;11.00;;;11.90;99.90;;;12.11;84.09;100552.28;5053345;28;20071;-69
2021/10/29 03:29:38;;;;;;;18.30;11.32;;;12.00;99.90;;;12.05;84.02;100557.69;5053576;28;20126;-69
2021/10/29 03:32:08;;;;;;;18.08;12.10;;;12.00;99.90;;;11.71;83.92;100469.00;5053367;28;20098;-69
2021/10/29 03:34:36;;;;;;;15.38;10.88;;;12.00;99.90;;;12.19;83.68;100549.53;5052254;28;20494;-69
2021/10/29 03:37:15;;;;;;;18.35;12.45;;;12.10;99.90;;;12.20;83.52;100548.59;5053469;28;20525;-69
2021/10/29 03:39:50;;;;;;;14.48;11.63;;;12.10;99.90;;;12.10;83.54;100531.13;5053571;28;20052;-69
2021/10/29 03:42:24;;;;;;;16.23;11.45;;;12.10;99.90;;;11.60;83.19;100436.47;5053229;28;20049;-69
2021/10/29 03:45:00;;;;;;;14.23;11.43;;;12.10;99.90;;;12.20;83.32;100545.94;5053122;28;20159;-69
2021/10/29 03:47:31;;;;;;;15.05;12.00;;;12.10;99.90;;;12.22;83.26;100534.44;5053381;28;20572;-69
2021/10/29 03:50:13;;;;;;;19.63;11.65;;;12.10;99.90;;;12.19;83.51;100541.56;5052032;28;20445;-69
2021/10/29 03:52:52;;;;;;;14.70;11.82;;;12.10;99.90;;;12.13;83.68;100542.53;5053202;28;20099;-69
2021/10/29 03:55:25;;;;;;;17.35;12.68;;;12.00;99.90;;;12.26;83.41;100535.25;5053119;28;20418;-69
2021/10/29 03:57:55;;;;;;;15.27;11.93;;;12.10;99.90;;;12.17;83.42;100532.75;5052924;28;20099;-68
2021/10/29 04:00:28;;;;;;;16.60;11.38;;;12.10;99.90;;;12.08;83.43;100517.84;5053162;28;20071;-69
2021/10/29 04:03:00;;;;;;;14.27;11.55;;;12.10;99.90;;;12.30;83.32;100536.94;5052905;28;20045;-69
2021/10/29 04:05:30;;;;;;;14.90;11.52;;;12.20;99.90;;;12.20;83.53;100532.69;5051871;28;20051;-69
2021/10/29 04:08:01;;;;;;;17.73;11.32;;;12.10;99.90;;;12.20;83.38;100528.28;5053058;28;20079;-69
2021/10/29 04:10:30;;;;;;;18.02;11.77;;;12.10;99.90;;;12.15;83.60;100526.59;5052734;28;20044;-69
2021/10/29 04:13:03;;;;;;;18.70;12.02;;;12.10;99.90;;;12.14;83.58;100535.44;5052679;28;20064;-69
2021/10/29 04:15:32;;;;;;;16.02;10.85;;;12.00;99.90;;;12.21;83.45;100534.47;5052761;28;20816;-69
2021/10/29 04:18:00;;;;;;;13.45;11.05;;;12.10;99.90;;;12.19;83.33;100529.19;5052626;28;20040;-69
2021/10/29 04:20:28;;;;;;;13.48;11.50;;;12.10;99.90;;;12.28;83.29;100538.75;5053187;28;20053;-69
2021/10/29 04:22:58;;;;;;;16.85;11.45;;;12.20;99.90;;;12.32;82.95;100524.53;5052302;28;20072;-68
2021/10/29 04:25:27;;;;;;;12.80;11.30;;;12.20;99.90;;;12.38;82.77;100524.44;5052896;28;20095;-69
2021/10/29 04:27:59;;;;;;;14.43;10.68;;;12.20;99.90;;;12.34;82.62;100517.44;5052522;28;20479;-69
2021/10/29 04:30:29;;;;;;;14.50;11.25;;;12.30;99.90;;;12.30;82.86;100521.03;5052520;28;20041;-69
2021/10/29 04:32:59;;;;;;;17.65;11.02;;;12.20;99.90;;;12.31;82.69;100506.91;5053111;28;20132;-68
2021/10/29 04:35:27;;;;;;;17.15;10.68;;;12.20;99.90;;;12.16;82.84;100488.56;5053044;28;20132;-69
2021/10/29 04:37:55;;;;;;;19.38;11.75;;;12.20;99.90;;;12.39;82.56;100508.50;5052461;28;20095;-69
2021/10/29 04:40:25;;;;;;;16.52;11.82;;;12.30;99.90;;;12.39;82.60;100511.16;5052674;28;20075;-69
2021/10/29 04:42:54;;;;;;;16.10;11.00;;;12.30;99.90;;;12.39;82.68;100497.00;5052621;28;20061;-69
2021/10/29 04:45:22;;;;;;;15.90;11.95;;;12.30;99.90;;;12.44;82.22;100508.41;5052395;28;20136;-69
2021/10/29 04:47:51;;;;;;;16.45;11.27;;;12.30;99.90;;;12.41;82.45;100505.81;5052865;28;20044;-69
2021/10/29 04:50:19;;;;;;;14.50;10.98;;;12.30;99.90;;;12.39;82.56;100499.66;5052532;28;20052;-69
2021/10/29 04:52:48;;;;;;;16.17;11.38;;;12.30;99.90;;;12.37;82.51;100510.28;5052204;28;20487;-69
2021/10/29 04:55:16;;;;;;;14.50;10.57;;;12.30;99.90;;;12.39;82.39;100497.88;5052605;28;20041;-69
2021/10/29 04:57:46;;;;;;;14.43;10.82;;;12.30;99.90;;;12.38;82.49;100497.91;5052512;28;20051;-69
2021/10/29 05:00:15;;;;;;;15.75;11.68;;;12.30;99.90;;;12.35;82.56;100490.88;5052429;28;20037;-69
2021/10/29 05:02:44;;;;;;;14.20;11.10;;;12.20;99.90;;;12.27;82.86;100505.19;5052536;28;20441;-69
2021/10/29 05:05:13;;;;;;;14.25;10.20;;;12.20;99.90;;;12.26;83.03;100503.44;5052424;28;20069;-69
2021/10/29 05:07:43;;;;;;;14.57;10.77;;;12.20;99.90;;;12.26;83.00;100501.66;5056064;28;20049;-69
2021/10/29 05:10:11;;;;;;;14.48;11.40;;;12.20;99.90;;;12.34;82.89;100496.22;5055959;28;20418;-69
2021/10/29 05:12:40;;;;;;;17.15;11.57;;;12.20;99.90;;;12.31;82.71;100490.97;5055968;28;20115;-69
2021/10/29 05:15:11;;;;;;;13.65;10.27;;;12.20;99.90;;;12.36;82.54;100505.03;5055983;28;20041;-69
2021/10/29 05:17:41;;;;;;;13.52;10.27;;;12.20;99.90;;;12.32;82.52;100500.66;5055822;28;20045;-69
2021/10/29 05:20:09;;;;;;;18.38;11.50;;;12.20;99.90;;;12.34;82.79;100486.50;5056140;28;20055;-69
2021/10/29 05:22:38;;;;;;;14.40;11.63;;;12.20;99.90;;;12.34;82.77;100475.00;5055867;28;20099;-69
2021/10/29 05:25:08;;;;;;;17.25;11.50;;;12.20;99.90;;;12.26;82.90;100475.13;5055514;28;20152;-69
2021/10/29 05:27:37;;;;;;;14.98;10.50;;;12.20;99.90;;;12.20;83.34;100492.91;5054647;28;20053;-69
2021/10/29 05:30:08;;;;;;;15.32;10.18;;;12.10;99.90;;;12.13;83.28;100464.78;5055908;28;20463;-69
2021/10/29 05:32:38;;;;;;;13.45;10.65;;;12.10;99.90;;;12.12;83.46;100468.31;5055837;28;20072;-69
2021/10/29 05:35:09;;;;;;;13.23;9.55;;;12.00;99.90;;;12.13;83.63;100468.31;5055635;28;20445;-69
2021/10/29 05:37:37;;;;;;;16.80;10.70;;;12.00;99.90;;;12.04;83.68;100468.44;5055547;28;20094;-69
2021/10/29 05:40:09;;;;;;;15.98;10.68;;;12.00;99.90;;;12.10;83.71;100462.19;5055448;28;20052;-69
2021/10/29 05:42:37;;;;;;;16.00;11.90;;;12.00;99.90;;;12.19;83.62;100470.84;5055503;28;20083;-69
2021/10/29 05:45:09;;;;;;;13.85;10.73;;;12.10;99.90;;;11.69;83.55;100400.13;5055395;28;20398;-69
2021/10/29 05:47:40;;;;;;;14.00;10.95;;;12.00;99.90;;;12.10;83.93;100463.03;5055417;28;20045;-69
2021/10/29 05:50:11;;;;;;;15.73;10.98;;;12.00;99.90;;;12.14;83.35;100480.66;5055370;28;20441;-69
2021/10/29 05:52:43;;;;;;;17.58;10.55;;;12.00;99.90;;;12.11;83.17;100461.28;5053967;28;20537;-69
2021/10/29 05:55:14;;;;;;;15.13;10.95;;;12.10;99.90;;;12.18;83.10;100469.09;5055453;28;20107;-69
2021/10/29 05:57:46;;;;;;;14.10;10.57;;;12.10;99.90;;;12.31;82.91;100475.91;5055191;28;20095;-69
2021/10/29 06:00:17;;;;;;;16.10;10.30;;;12.20;99.90;;;12.38;82.55;100460.78;5055032;28;20442;-69
2021/10/29 06:02:47;;;;;;;11.43;10.07;;;12.20;99.90;;;12.39;82.23;100473.13;5055353;28;20053;-69
2021/10/29 06:05:18;;;;;;;14.07;10.75;;;12.30;99.90;;;12.27;82.53;100463.63;5055029;28;20153;-69
2021/10/29 06:07:47;;;;;;;14.18;10.38;;;12.20;99.90;;;12.29;82.67;100455.66;5054980;28;20053;-69
2021/10/29 06:10:17;;;;;;;12.60;10.30;;;12.20;99.90;;;12.16;82.78;100472.66;5054972;28;20453;-69
2021/10/29 06:12:46;;;;;;;14.73;11.18;;;12.10;99.90;;;12.17;83.12;100467.34;5055039;28;20497;-69
2021/10/29 06:15:16;;;;;;;12.55;10.20;;;12.00;99.90;;;12.21;83.04;100462.88;5054698;28;20421;-69
2021/10/29 06:17:47;;;;;;;13.88;10.20;;;12.10;99.90;;;12.22;82.81;100468.13;5054345;28;20048;-69
2021/10/29 06:20:16;;;;;;;16.50;10.65;;;12.10;99.90;;;12.24;83.15;100462.81;5053820;28;20076;-69
2021/10/29 06:22:47;;;;;;;17.45;10.15;;;12.10;99.90;;;11.89;82.73;100393.63;5054847;28;20047;-69
2021/10/29 06:25:18;;;;;;;19.95;10.63;;;12.10;99.90;;;12.21;82.93;100461.09;5054426;28;20049;-69
2021/10/29 06:30:39;;;;;;;16.13;11.10;;;12.10;99.90;;;12.23;82.88;100484.94;5054549;28;20049;-69
2021/10/29 06:33:09;;;;;;;13.95;10.35;;;12.10;99.90;;;12.28;82.62;100462.72;5054166;28;20487;-69
2021/10/29 06:35:39;;;;;;;15.40;10.50;;;12.20;99.90;;;12.29;82.67;100460.97;5054316;28;20041;-68
2021/10/29 06:38:10;;;;;;;14.10;10.85;;;12.20;99.90;;;12.26;82.81;100458.34;5054724;28;20060;-69
2021/10/29 06:40:39;;;;;;;14.23;10.80;;;12.20;99.90;;;12.23;82.99;100453.97;5054356;28;20045;-69
2021/10/29 06:43:15;;;;;;;16.92;10.07;;;12.10;99.90;;;12.32;82.70;100455.59;5054581;28;20129;-69
2021/10/29 06:46:03;;;;;;;14.02;10.15;;;12.20;99.90;;;12.27;82.59;100452.16;5054534;28;20102;-69
2021/10/29 06:48:48;;;;;;;14.10;11.35;;;12.20;99.90;;;12.29;82.54;100437.09;5054488;28;20453;-69
2021/10/29 06:59:49;;;;;;;13.02;10.23;;;12.50;99.90;;;12.67;81.49;100446.06;5053777;28;20482;-71
2021/10/29 07:02:46;;;;;;;16.85;11.35;;;12.50;99.90;;;12.88;80.75;100450.06;5054091;28;20049;-69
2021/10/29 07:11:32;;;;;;;18.38;11.85;;;12.70;99.90;;;12.93;80.35;100428.75;5054004;28;20055;-69
2021/10/29 07:41:49;;;;;;;10.75;8.60;;;14.10;99.90;;;14.43;74.19;100451.72;5053374;28;20102;-71
2021/10/29 07:44:25;;;;;;;11.52;8.93;;;14.20;99.90;;;14.44;73.31;100457.91;5053632;28;20451;-70
2021/10/29 07:46:54;;;;;;;14.27;9.75;;;14.30;99.90;;;14.61;72.49;100455.69;5052969;28;20048;-69
2021/10/29 07:49:27;;;;;;;16.05;9.52;;;14.40;99.90;;;14.64;72.74;100457.34;5053031;28;20078;-67
2021/10/29 07:51:56;;;;;;;12.32;9.07;;;14.50;99.90;;;14.79;72.53;100423.19;5052776;28;20040;-69
2021/10/29 07:54:27;;;;;;;15.13;8.95;;;14.60;99.90;;;15.11;71.53;100425.81;5052804;28;20108;-70
2021/10/29 07:56:55;;;;;;;11.02;8.93;;;14.90;99.90;;;15.07;71.17;100426.81;5052836;28;20049;-68
2021/10/29 07:59:25;;;;;;;13.82;8.43;;;15.00;99.90;;;14.95;71.51;100424.50;5052585;28;20132;-68
2021/10/29 08:01:54;;;;;;;12.05;8.90;;;14.90;99.90;;;15.25;70.95;100423.56;5053053;28;20072;-68
2021/10/29 08:04:23;;;;;;;14.77;9.20;;;15.00;99.90;;;15.32;69.77;100425.16;5052985;28;20049;-69
2021/10/29 08:06:52;;;;;;;10.57;8.07;;;15.20;99.90;;;15.31;70.08;100412.72;5051557;28;20045;-68
2021/10/29 08:09:21;;;;;;;11.45;8.98;;;15.30;99.90;;;15.37;69.46;100431.19;5052750;28;20044;-69
2021/10/29 08:11:51;;;;;;;14.52;8.30;;;15.20;99.90;;;15.32;69.84;100413.63;5052549;28;20047;-70
2021/10/29 08:14:20;;;;;;;12.15;8.52;;;15.20;99.90;;;15.42;70.61;100400.91;5052801;28;20505;-71
2021/10/29 08:16:49;;;;;;;13.80;8.32;;;15.20;99.90;;;15.26;69.97;100416.47;5052654;28;20099;-70
2021/10/29 08:19:21;;;;;;;10.05;8.68;;;15.20;99.90;;;15.32;70.27;100424.28;5052610;28;20406;-69
2021/10/29 08:21:49;;;;;;;12.63;8.60;;;15.20;99.90;;;15.48;70.29;100408.72;5052598;28;20045;-69
2021/10/29 08:24:18;;;;;;;11.95;8.40;;;15.30;99.90;;;15.34;69.70;100410.00;5050771;28;20143;-69
2021/10/29 08:26:47;;;;;;;14.15;9.15;;;15.40;99.90;;;15.42;69.60;100408.91;5052259;28;20099;-69
2021/10/29 08:29:17;;;;;;;14.15;8.60;;;15.30;99.90;;;15.29;70.03;100408.41;5052348;28;20465;-69
2021/10/29 08:31:45;;;;;;;9.93;8.70;;;15.30;99.90;;;15.51;70.02;100403.25;5052438;28;20072;-68
2021/10/29 08:34:14;;;;;;;11.70;8.68;;;15.30;99.90;;;15.45;69.01;100401.69;5052401;28;20474;-69
2021/10/29 08:36:43;;;;;;;11.48;8.40;;;15.30;99.90;;;15.83;68.78;100390.63;5052722;28;20044;-69
2021/10/29 08:39:14;;;;;;;11.97;8.03;;;15.60;99.90;;;15.71;68.59;100384.84;5052996;28;20056;-69
2021/10/29 08:41:43;;;;;;;11.75;8.40;;;15.60;99.90;;;15.57;68.29;100384.41;5056530;28;20049;-69
2021/10/29 08:44:13;;;;;;;9.85;8.20;;;15.50;99.90;;;15.62;69.14;100369.16;5056714;28;20045;-69
2021/10/29 08:46:46;;;;;;;9.57;8.00;;;15.60;99.90;;;15.99;68.12;100398.97;5056750;28;20535;-68
2021/10/29 08:49:16;;;;;;;12.63;7.80;;;15.70;99.90;;;15.73;68.56;100369.66;5056444;28;20037;-69
2021/10/29 08:51:45;;;;;;;12.57;7.95;;;15.70;99.90;;;15.80;68.66;100395.19;5056566;28;20372;-68
2021/10/29 08:54:13;;;;;;;10.40;8.30;;;15.60;99.90;;;15.88;68.64;100390.47;5056585;28;20444;-69
2021/10/29 08:56:42;;;;;;;9.95;8.70;;;15.70;99.90;;;16.01;67.88;100407.81;5056286;28;20053;-66
2021/10/29 08:59:14;;;;;;;11.48;7.72;;;15.80;99.90;;;15.97;68.18;100398.16;5056193;28;20463;-66
2021/10/29 09:01:57;;;;;;;12.80;8.57;;;15.80;99.90;;;16.09;68.31;100392.41;5056166;28;20556;-66
2021/10/29 09:04:42;;;;;;;11.15;8.43;;;15.90;99.90;;;16.28;67.73;100398.84;5056193;28;20387;-67
2021/10/29 09:07:25;;;;;;;12.50;8.82;;;16.00;99.90;;;16.18;67.89;100376.94;5055155;28;20419;-67
2021/10/29 09:32:54;;;;;;;13.85;7.95;;;16.60;99.90;;;16.70;65.60;100385.81;5055816;28;20047;-67
2021/10/29 09:35:27;;;;;;;12.60;7.63;;;16.50;99.90;;;16.96;65.18;100364.31;5055763;28;20480;-67
2021/10/29 09:38:01;;;;;;;11.55;8.02;;;16.80;99.90;;;17.11;64.75;100353.03;5055514;28;20052;-67
2021/10/29 09:40:59;;;;;;;12.32;8.30;;;16.90;99.90;;;17.13;65.99;100362.72;5055785;28;20139;-68
2021/10/29 09:43:32;;;;;;;10.80;7.55;;;16.90;99.90;;;17.34;65.30;100382.41;5055500;28;20463;-67
2021/10/29 09:46:02;;;;;;;10.27;7.43;;;17.10;99.90;;;17.26;64.43;100356.91;5055505;28;20091;-67
2021/10/29 09:48:40;;;;;;;13.13;7.35;;;17.20;99.90;;;17.30;64.38;100321.09;5055410;28;20405;-67
2021/10/29 09:51:12;;;;;;;12.70;7.72;;;17.30;99.90;;;17.09;64.77;100330.84;5054592;28;20037;-67
2021/10/29 09:53:44;;;;;;;12.60;7.10;;;17.20;99.90;;;17.41;63.66;100332.22;5055512;28;20045;-67
2021/10/29 09:56:17;;;;;;;10.80;7.28;;;17.30;99.90;;;17.40;63.65;100346.53;5055289;28;20048;-68
2021/10/29 09:58:48;;;;;;;12.43;7.15;;;17.30;99.90;;;17.04;63.68;100223.25;5070781;28;20045;-68
2021/10/29 10:01:17;;;;;;;14.00;8.02;;;17.40;99.90;;;17.67;63.34;100364.16;5055151;28;20041;-68
2021/10/29 10:03:48;;;;;;;9.75;6.95;;;17.50;99.90;;;17.68;63.22;100350.72;5053948;28;20131;-68
2021/10/29 10:06:22;;;;;;;11.23;7.25;;;17.60;99.90;;;17.65;62.32;100336.59;5055328;28;20044;-68
2021/10/29 10:08:53;;;;;;;11.10;7.25;;;17.50;99.90;;;17.52;63.14;100325.53;5055513;28;20041;-69
2021/10/29 10:11:26;;;;;;;9.55;6.50;;;17.50;99.90;;;17.55;63.35;100376.22;5070546;28;20453;-69
2021/10/29 10:13:57;;;;;;;9.68;6.95;;;17.40;99.90;;;17.56;63.54;100332.50;5054702;28;20045;-68
2021/10/29 10:16:29;;;;;;;12.70;7.78;;;17.30;99.90;;;17.38;63.54;100300.28;5054724;28;20463;-68
2021/10/29 10:18:58;;;;;;;11.57;6.90;;;17.30;99.90;;;17.42;62.65;100312.56;5054752;28;20048;-68
2021/10/29 10:21:37;;;;;;;8.80;7.30;;;17.30;99.90;;;17.74;62.55;100314.78;5054674;28;20116;-68
2021/10/29 10:24:10;;;;;;;12.73;7.43;;;17.50;99.90;;;17.67;63.56;100292.78;5054561;28;20053;-69
2021/10/29 10:26:56;;;;;;;11.15;6.97;;;17.50;99.90;;;17.95;62.91;100271.06;5054687;28;20048;-69
2021/10/29 10:29:44;;;;;;;10.57;6.93;;;17.70;99.90;;;17.79;63.46;100291.38;5070288;28;20045;-69
2021/10/29 10:41:00;;;;;;;8.95;7.07;;;17.50;99.90;;;17.71;63.54;100298.91;5054014;28;20045;-69
2021/10/29 10:43:40;;;;;;;12.05;7.28;;;17.60;99.90;;;17.67;63.04;100291.94;5054578;28;20400;-69
2021/10/29 10:46:18;;;;;;;10.07;7.82;;;17.50;99.90;;;17.60;63.41;100275.25;5054322;28;20123;-68
2021/10/29 10:48:56;;;;;;;13.70;6.93;;;17.40;99.90;;;17.56;63.63;100292.38;5054199;28;20124;-69
2021/10/29 10:51:44;;;;;;;12.00;7.10;;;17.40;99.90;;;17.70;63.42;100265.91;5052979;28;20053;-68
2021/10/29 10:54:27;;;;;;;9.95;7.32;;;17.50;99.90;;;17.57;63.32;100271.84;5053977;28;20049;-68
2021/10/29 10:57:08;;;;;;;13.02;7.78;;;17.50;99.90;;;17.72;62.81;100218.56;5054242;28;20497;-68
2021/10/29 10:59:51;;;;;;;13.85;7.25;;;17.70;99.90;;;17.91;61.68;100313.16;5053996;28;20040;-68
2021/10/29 11:11:18;;;;;;;8.88;6.85;;;17.50;99.90;;;18.00;62.42;100261.88;5053807;28;20134;-68
2021/10/29 11:13:53;;;;;;;10.23;7.30;;;17.80;99.90;;;18.01;62.12;100234.19;5053732;28;20407;-69
2021/10/29 11:16:35;;;;;;;12.35;7.78;;;17.90;99.90;;;18.15;62.90;100257.66;5053549;28;20063;-69
2021/10/29 11:19:12;;;;;;;12.52;6.90;;;17.90;99.90;;;18.17;62.00;100263.81;5053179;28;20060;-68
2021/10/29 11:21:50;;;;;;;13.13;7.68;;;18.00;99.90;;;18.30;61.10;100297.13;5054075;28;20486;-68
2021/10/29 11:24:29;;;;;;;11.88;7.15;;;18.10;99.90;;;18.23;61.52;100231.41;5053150;28;20056;-68
2021/10/29 11:27:06;;;;;;;10.10;7.35;;;18.00;99.90;;;18.25;62.52;100250.97;5053531;28;20045;-66
2021/10/29 11:29:47;;;;;;;11.48;7.20;;;18.10;99.90;;;18.08;61.54;100256.19;5053667;28;20052;-68
2021/10/29 11:32:19;;;;;;;13.15;6.47;;;18.00;99.90;;;17.96;62.47;100252.25;5053288;28;20490;-67
2021/10/29 11:34:49;;;;;;;9.27;6.95;;;17.90;99.90;;;18.14;62.01;100263.94;5053264;28;20139;-67
2021/10/29 11:37:17;;;;;;;16.40;6.63;;;17.90;99.90;;;17.98;63.02;100281.66;5053493;28;20045;-66
2021/10/29 11:39:45;;;;;;;10.98;6.93;;;17.90;99.90;;;18.06;62.94;100236.66;5053425;28;20041;-68
2021/10/29 11:42:18;;;;;;;12.07;7.53;;;17.80;99.90;;;17.73;62.64;100152.56;5068746;28;20080;-67
2021/10/29 11:44:48;;;;;;;18.30;7.22;;;18.00;99.90;;;18.40;62.78;100193.13;5053633;28;20163;-69